Silverton, Oregon
Current Conditions -  °F | °C
As of 3:56 PM on Wednesday 22 Oct 2014 (Local Time) from KSLE Reporting Station
Moderate Rain Moderate Rain  
Wind Chill: 59°   Ceiling: 1300
Heat Index: 59°   Visibility: 2.5mi
Dew Point: 56°   Wind: 13mph
Humidity: 90%   Direction: 210°SSW
Pressure: 29.72"   Gusts: NA
Location:  45°N, 122.78°W
Report Text: KSLE 222256Z 21011KT 2 1/2SM RA BR BKN013 BKN040 OVC060 15/13 A2972 RMK AO2 SLP063 P0017 T01500133
Loading
Personal Weather Stations






























Interactive Weather Map
Tropical Storm Tracking
New forecast layout! Learn more

10-Day Weather Forecast

Advertisements
Track Severe Weather on mobile